createdAt,value
2022-12-11T00:00:41.089Z,5.25
2022-12-11T00:02:43.833Z,5.60
2022-12-11T00:04:46.162Z,5.75
2022-12-11T09:26:25.300Z,2.62
2022-12-11T09:28:28.081Z,3.15
2022-12-11T09:30:30.412Z,2.70
2022-12-11T09:32:32.767Z,3.25
2022-12-11T09:34:35.447Z,2.78
2022-12-11T09:36:39.733Z,2.50
2022-12-11T09:38:44.172Z,3.17
2022-12-11T09:40:46.888Z,2.47
2022-12-11T09:43:00.333Z,2.55
2022-12-11T09:45:05.086Z,1.70
2022-12-11T09:47:35.087Z,2.70
2022-12-11T09:49:44.041Z,2.65
2022-12-11T09:52:15.749Z,2.55
2022-12-11T09:54:18.346Z,3.00
2022-12-11T09:56:36.455Z,3.10
2022-12-11T09:58:57.900Z,2.42
2022-12-11T10:01:18.387Z,2.80
2022-12-11T10:03:29.635Z,1.87
2022-12-11T10:05:37.466Z,2.40
2022-12-11T10:07:54.896Z,2.40
2022-12-11T10:10:27.114Z,2.87
2022-12-11T10:12:38.280Z,2.62
2022-12-11T10:15:12.493Z,3.03
2022-12-11T10:17:28.961Z,2.42
2022-12-11T10:19:33.146Z,2.72
2022-12-11T10:21:41.722Z,1.95
2022-12-11T10:23:54.500Z,2.75
2022-12-11T10:26:07.892Z,2.78
2022-12-11T10:28:15.382Z,2.53
2022-12-11T10:30:33.047Z,2.50
2022-12-11T10:33:06.759Z,2.33
2022-12-11T10:35:18.314Z,2.85
2022-12-11T10:37:21.143Z,2.65
2022-12-11T10:39:23.627Z,2.67
2022-12-11T10:41:42.192Z,3.55
2022-12-11T10:43:47.392Z,2.22
2022-12-11T10:45:51.794Z,2.83
2022-12-11T10:48:11.824Z,2.80
2022-12-11T10:50:26.116Z,2.58
2022-12-11T10:52:46.875Z,3.22
2022-12-11T10:55:18.575Z,3.25
2022-12-11T10:57:31.385Z,2.60
2022-12-11T10:59:36.642Z,2.97
2022-12-11T11:01:39.013Z,3.40
2022-12-11T11:03:55.686Z,3.10
2022-12-11T11:06:04.066Z,2.50
2022-12-11T11:08:20.178Z,2.90
2022-12-11T11:10:22.845Z,2.53
2022-12-11T11:12:27.657Z,3.37
2022-12-11T11:14:29.993Z,3.00
2022-12-11T11:16:37.373Z,2.12
2022-12-11T11:18:41.772Z,2.80
2022-12-11T11:20:48.154Z,2.85
2022-12-11T11:22:56.019Z,3.12
2022-12-11T11:24:59.764Z,3.75
2022-12-11T11:27:18.793Z,3.10
2022-12-11T11:29:30.338Z,2.75
2022-12-11T11:31:35.958Z,3.00
2022-12-11T11:34:05.818Z,4.60
2022-12-11T11:36:21.739Z,3.30
2022-12-11T11:38:32.975Z,2.83
2022-12-11T11:40:44.844Z,2.92
2022-12-11T11:43:11.018Z,3.03
2022-12-11T11:45:19.866Z,3.10
2022-12-11T11:47:27.809Z,2.72
2022-12-11T11:49:34.394Z,3.45
2022-12-11T11:51:43.502Z,2.70
2022-12-11T11:53:50.816Z,3.42
2022-12-11T11:56:18.597Z,3.33
2022-12-11T11:58:27.742Z,2.85
2022-12-11T12:00:33.926Z,2.40
2022-12-11T12:02:37.588Z,3.08
2022-12-11T12:04:40.111Z,3.05
2022-12-11T12:07:03.944Z,2.72
2022-12-11T12:09:26.046Z,3.20
2022-12-11T12:12:02.287Z,2.55
2022-12-11T12:14:22.769Z,2.55
2022-12-11T12:16:52.562Z,3.22
2022-12-11T12:19:25.524Z,3.47
2022-12-11T12:21:36.642Z,3.03
2022-12-11T12:24:05.607Z,2.62
2022-12-11T12:26:27.972Z,3.62
2022-12-11T12:29:05.457Z,2.97
2022-12-11T12:31:11.367Z,3.42
2022-12-11T12:33:40.685Z,3.45
2022-12-11T12:35:54.506Z,3.53
2022-12-11T12:38:30.332Z,3.15
2022-12-11T12:40:40.166Z,3.45
2022-12-11T12:43:11.981Z,3.03
2022-12-11T12:45:15.013Z,3.53
2022-12-11T12:47:18.898Z,4.07
2022-12-11T12:49:41.444Z,3.37
2022-12-11T12:51:45.154Z,3.42
2022-12-11T12:53:55.772Z,3.45
2022-12-11T12:55:58.741Z,3.17
2022-12-11T12:58:05.215Z,3.40
2022-12-11T13:00:13.210Z,3.62
2022-12-11T13:02:17.498Z,3.85
2022-12-11T13:04:55.617Z,3.28
2022-12-11T13:06:58.553Z,3.60
2022-12-11T13:09:19.326Z,3.58
2022-12-11T13:11:32.710Z,3.62
2022-12-11T13:13:49.031Z,4.05
2022-12-11T13:16:07.081Z,3.65
2022-12-11T13:18:39.378Z,3.83
2022-12-11T13:20:51.184Z,3.53
2022-12-11T13:23:06.055Z,3.05
2022-12-11T13:25:27.995Z,3.95
2022-12-11T13:27:39.868Z,3.85
2022-12-11T13:29:42.688Z,3.55
2022-12-11T13:31:45.764Z,3.80
2022-12-11T13:33:53.334Z,3.87
2022-12-11T13:36:16.740Z,3.87
2022-12-11T13:38:22.721Z,4.32
2022-12-11T13:40:29.026Z,3.55
2022-12-11T13:42:40.826Z,4.37
2022-12-11T13:44:48.676Z,3.87
2022-12-11T13:46:53.540Z,4.18
2022-12-11T13:49:02.070Z,4.53
2022-12-11T13:51:06.730Z,3.30
2022-12-11T13:53:15.971Z,4.10
2022-12-11T13:55:27.772Z,4.68
2022-12-11T13:57:30.496Z,3.80
2022-12-11T13:59:36.041Z,4.85
2022-12-11T14:01:39.590Z,3.95
2022-12-11T14:03:55.517Z,3.92
2022-12-11T14:05:59.360Z,5.15
2022-12-11T14:08:09.250Z,4.68
2022-12-11T14:10:14.927Z,4.60
2022-12-11T14:12:21.426Z,4.15
2022-12-11T14:14:42.256Z,4.12
2022-12-11T14:16:51.713Z,5.32
2022-12-11T14:19:00.830Z,4.70
2022-12-11T14:21:06.053Z,4.43
2022-12-11T14:23:21.943Z,4.05
2022-12-11T14:25:27.763Z,4.25
2022-12-11T14:27:31.155Z,4.97
2022-12-11T14:29:34.239Z,4.78
2022-12-11T14:31:41.084Z,4.90
2022-12-11T14:33:48.028Z,4.18
2022-12-11T14:35:55.088Z,4.62
2022-12-11T14:38:00.881Z,4.10
2022-12-11T14:40:09.789Z,4.55
2022-12-11T14:42:19.695Z,4.65
2022-12-11T14:44:25.850Z,4.28
2022-12-11T14:46:50.342Z,5.25
2022-12-11T14:49:00.748Z,4.75
2022-12-11T14:51:07.908Z,4.25
2022-12-11T14:53:15.614Z,5.43
2022-12-11T14:55:26.956Z,5.32
2022-12-11T14:57:33.444Z,5.35
2022-12-11T14:59:46.018Z,6.05
2022-12-11T15:01:58.217Z,5.65
2022-12-11T15:04:15.589Z,6.12
2022-12-11T15:06:28.800Z,5.25
2022-12-11T15:08:38.665Z,4.47
2022-12-11T15:10:54.842Z,5.18
2022-12-11T15:12:58.830Z,5.55
2022-12-11T15:15:06.668Z,5.45
2022-12-11T15:17:14.666Z,5.45
2022-12-11T15:19:38.463Z,5.62
2022-12-11T15:21:41.412Z,5.10
2022-12-11T15:23:46.648Z,7.82
2022-12-11T15:25:55.518Z,5.70
2022-12-11T15:28:01.936Z,5.97
2022-12-11T15:30:37.819Z,5.62
2022-12-11T15:32:40.636Z,4.82
2022-12-11T15:34:55.834Z,5.87
2022-12-11T15:36:58.286Z,5.35
2022-12-11T15:39:01.684Z,5.75
2022-12-11T15:41:04.860Z,5.72
2022-12-11T15:43:09.330Z,6.10
2022-12-11T15:45:19.933Z,4.82
2022-12-11T15:47:27.250Z,5.25
2022-12-11T15:49:30.390Z,5.68
2022-12-11T15:51:32.894Z,5.43
2022-12-11T15:53:35.865Z,5.12
2022-12-11T15:55:39.493Z,5.18
2022-12-11T15:57:54.704Z,5.47
2022-12-11T15:59:58.962Z,5.82
2022-12-11T16:02:02.589Z,5.22
2022-12-11T16:04:06.085Z,5.70
2022-12-11T16:06:12.283Z,4.97
2022-12-11T16:08:17.788Z,6.05
2022-12-11T16:10:21.829Z,5.60
2022-12-11T16:12:24.250Z,5.60
2022-12-11T16:14:30.165Z,5.18
2022-12-11T16:16:32.968Z,6.60
2022-12-11T16:18:35.548Z,6.00
2022-12-11T16:20:39.863Z,5.68
2022-12-11T16:22:43.209Z,4.80
2022-12-11T16:24:46.167Z,5.03
2022-12-11T16:26:48.799Z,5.68
2022-12-11T16:28:51.974Z,5.87
2022-12-11T16:30:57.704Z,6.20
2022-12-11T16:33:00.299Z,5.32
2022-12-11T16:35:03.097Z,5.20
2022-12-11T16:37:08.704Z,5.32
2022-12-11T16:39:12.578Z,4.70
2022-12-11T16:41:16.521Z,5.32
2022-12-11T16:43:18.889Z,6.03
2022-12-11T16:45:25.381Z,5.10
2022-12-11T16:47:30.082Z,5.32
2022-12-11T16:49:34.450Z,5.68
2022-12-11T16:51:36.873Z,5.00
2022-12-11T16:53:41.606Z,5.65
2022-12-11T16:55:44.252Z,4.60
2022-12-11T16:57:47.743Z,5.20
2022-12-11T16:59:50.978Z,6.28
2022-12-11T17:01:53.562Z,6.62
2022-12-11T17:03:56.387Z,5.22
2022-12-11T17:05:59.214Z,4.57
2022-12-11T17:08:01.843Z,6.32
2022-12-11T17:10:05.138Z,5.20
2022-12-11T17:12:11.097Z,5.55
2022-12-11T17:14:13.962Z,5.20
2022-12-11T17:16:17.393Z,5.12
2022-12-11T17:18:21.365Z,5.30
2022-12-11T17:20:26.095Z,4.82
2022-12-11T17:22:29.024Z,5.25
2022-12-11T17:24:32.863Z,4.20
2022-12-11T17:26:37.452Z,3.87
2022-12-11T17:28:41.032Z,6.03
2022-12-11T17:30:46.102Z,4.97
2022-12-11T17:32:50.113Z,4.90
2022-12-11T17:34:53.298Z,5.20
2022-12-11T17:36:56.714Z,5.45
2022-12-11T17:39:02.118Z,4.95
2022-12-11T17:41:09.556Z,4.57
2022-12-11T17:43:14.452Z,4.65
2022-12-11T17:45:18.887Z,5.22
2022-12-11T17:47:21.741Z,4.37
2022-12-11T17:49:25.327Z,6.32
2022-12-11T17:51:28.186Z,4.90
2022-12-11T17:53:31.884Z,5.22
2022-12-11T17:55:36.357Z,5.62
2022-12-11T17:57:39.294Z,5.22
2022-12-11T17:59:42.138Z,4.80
2022-12-11T18:01:45.168Z,5.05
2022-12-11T18:03:48.750Z,5.30
2022-12-11T18:05:54.683Z,4.85
2022-12-11T18:07:58.352Z,4.35
2022-12-11T18:10:01.670Z,6.05
2022-12-11T18:12:04.408Z,4.20
2022-12-11T18:14:13.714Z,5.37
2022-12-11T18:16:34.337Z,4.70
2022-12-11T18:18:37.777Z,4.78
2022-12-11T18:21:01.360Z,5.50
2022-12-11T18:23:05.212Z,4.60
2022-12-11T18:25:11.447Z,5.28
2022-12-11T18:27:16.498Z,5.45
2022-12-11T18:29:20.313Z,5.75
2022-12-11T18:31:26.947Z,4.95
2022-12-11T18:33:31.624Z,4.97
2022-12-11T18:35:35.127Z,5.72
2022-12-11T18:37:39.212Z,5.93
2022-12-11T18:39:43.194Z,6.40
2022-12-11T18:41:58.340Z,5.62
2022-12-11T18:44:10.162Z,5.18
2022-12-11T18:46:16.621Z,5.87
2022-12-11T18:48:19.842Z,5.03
2022-12-11T18:50:23.334Z,6.05
2022-12-11T18:52:26.704Z,5.50
2022-12-11T18:54:38.006Z,12.57
2022-12-11T18:56:42.820Z,5.97
2022-12-11T18:58:46.937Z,5.85
2022-12-11T19:00:51.667Z,5.35
2022-12-11T19:02:55.241Z,5.80
2022-12-11T19:04:58.716Z,5.43
2022-12-11T19:07:02.498Z,5.12
2022-12-11T19:09:08.474Z,5.10
2022-12-11T19:11:19.253Z,5.95
2022-12-11T19:13:23.231Z,5.53
2022-12-11T19:15:28.022Z,7.22
2022-12-11T19:17:31.290Z,5.60
2022-12-11T19:19:36.492Z,4.75
2022-12-11T19:21:41.087Z,6.22
2022-12-11T19:23:45.015Z,5.70
2022-12-11T19:25:49.519Z,4.68
2022-12-11T19:27:52.945Z,6.30
2022-12-11T19:29:55.999Z,5.15
2022-12-11T19:32:02.344Z,5.72
2022-12-11T19:34:05.621Z,5.78
2022-12-11T19:36:12.407Z,6.25
2022-12-11T19:38:16.492Z,6.15
2022-12-11T19:40:22.301Z,6.05
2022-12-11T19:42:27.749Z,7.37
2022-12-11T19:44:33.208Z,6.82
2022-12-11T19:46:37.635Z,7.30
2022-12-11T19:48:42.357Z,6.90
2022-12-11T19:50:46.468Z,7.50
2022-12-11T19:52:50.258Z,6.90
2022-12-11T19:54:55.184Z,6.68
2022-12-11T19:56:58.663Z,5.10
2022-12-11T19:59:07.041Z,6.40
2022-12-11T20:01:21.939Z,6.93
2022-12-11T20:03:26.840Z,6.07
2022-12-11T20:05:30.334Z,7.15
2022-12-11T20:07:34.016Z,7.15
2022-12-11T20:09:37.658Z,7.10
2022-12-11T20:11:42.935Z,7.00
2022-12-11T20:13:46.632Z,8.07
2022-12-11T20:15:51.960Z,7.55
2022-12-11T20:17:57.198Z,8.45
2022-12-11T20:20:00.762Z,8.32
2022-12-11T20:22:06.019Z,8.45
2022-12-11T20:24:10.266Z,6.80
2022-12-11T20:26:20.496Z,8.65
2022-12-11T20:28:24.271Z,8.48
2022-12-11T20:30:27.704Z,9.05
2022-12-11T20:32:31.329Z,7.35
2022-12-11T20:34:34.509Z,7.57
2022-12-11T20:36:38.161Z,8.40
2022-12-11T20:38:42.275Z,8.77
2022-12-11T20:40:46.520Z,9.50
2022-12-11T20:42:50.535Z,7.20
2022-12-11T20:44:53.850Z,9.07
2022-12-11T20:46:58.449Z,9.43
2022-12-11T20:49:02.562Z,8.25
2022-12-11T20:51:09.535Z,7.82
2022-12-11T20:53:13.129Z,8.57
2022-12-11T20:55:16.471Z,9.60
2022-12-11T20:57:20.639Z,6.75
2022-12-11T20:59:26.393Z,8.80
2022-12-11T21:01:32.338Z,9.00
2022-12-11T21:03:40.407Z,8.20
2022-12-11T21:05:46.727Z,7.75
2022-12-11T21:07:50.401Z,8.48
2022-12-11T21:09:52.968Z,8.32
2022-12-11T21:11:58.358Z,9.15
2022-12-11T21:14:00.957Z,8.35
2022-12-11T21:16:06.211Z,8.52
2022-12-11T21:18:10.153Z,8.93
2022-12-11T21:20:12.904Z,9.43
2022-12-11T21:22:15.241Z,9.73
2022-12-11T21:24:25.064Z,8.32
2022-12-11T21:26:28.165Z,8.02
2022-12-11T21:28:35.528Z,9.48
2022-12-11T21:30:41.218Z,8.52
2022-12-11T21:32:44.025Z,8.82
2022-12-11T21:34:46.410Z,9.70
2022-12-11T21:36:49.145Z,8.48
2022-12-11T21:38:52.826Z,9.60
2022-12-11T21:40:56.416Z,8.98
2022-12-11T21:42:59.371Z,8.13
2022-12-11T21:47:26.066Z,8.15
2022-12-11T21:49:28.770Z,8.75
2022-12-11T21:51:37.104Z,9.00
2022-12-11T21:53:41.945Z,10.20
2022-12-11T21:55:44.547Z,8.90
2022-12-11T21:57:46.791Z,9.82
2022-12-11T21:59:49.074Z,9.85
2022-12-11T22:01:51.973Z,11.05
2022-12-11T22:03:54.853Z,7.93
2022-12-11T22:05:57.152Z,10.15
2022-12-11T22:07:59.562Z,9.43
2022-12-11T22:10:02.627Z,8.90
2022-12-11T22:12:05.158Z,9.68
2022-12-11T22:14:07.720Z,8.90
2022-12-11T22:16:10.323Z,8.07
2022-12-11T22:18:12.994Z,7.40
2022-12-11T22:20:15.345Z,7.47
2022-12-11T22:22:19.251Z,7.30
2022-12-11T22:24:21.629Z,9.95
2022-12-11T22:26:25.793Z,8.65
2022-12-11T22:28:28.446Z,7.20
2022-12-11T22:30:41.403Z,7.57
2022-12-11T22:32:45.568Z,8.10
2022-12-11T22:34:48.178Z,9.10
2022-12-11T22:36:50.680Z,7.85
2022-12-11T22:38:53.594Z,8.23
2022-12-11T22:40:56.344Z,8.27
2022-12-11T22:42:59.616Z,8.63
2022-12-11T22:45:01.944Z,7.43
2022-12-11T22:47:04.534Z,6.90
2022-12-11T22:49:06.865Z,8.35
2022-12-11T22:51:09.323Z,7.62
2022-12-11T22:53:11.927Z,8.98
2022-12-11T22:55:14.799Z,8.38
2022-12-11T22:57:17.218Z,8.07
2022-12-11T22:59:19.823Z,5.97
2022-12-11T23:01:24.690Z,9.50
